Time;durP1;ratioP1;P1;durP2;ratioP2;P2;SDS_P1;SDS_P2;PMS_P1;PMS_P2;Temp;Humidity;BMP_temperature;BMP_pressure;BME280_temperature;BME280_humidity;BME280_pressure;Samples;Min_cycle;Max_cycle;Signal;HPM_P1;HPM_P2
2023/10/22 00:02:16;;;;;;;1.45;0.73;;;;;;;;;;4992721;28;92571;-62
2023/10/22 00:04:44;;;;;;;5.38;0.90;;;;;;;;;;4994413;28;93092;-62
2023/10/22 00:07:14;;;;;;;2.35;0.98;;;;;;;;;;4997835;28;93497;-62
2023/10/22 00:09:40;;;;;;;2.83;0.82;;;;;;;;;;4995220;28;92674;-62
2023/10/22 00:12:07;;;;;;;3.67;0.88;;;;;;;;;;4992411;28;92645;-62
2023/10/22 00:14:34;;;;;;;3.03;1.20;;;;;;;;;;4992164;28;92599;-62
2023/10/22 00:17:00;;;;;;;5.10;0.90;;;;;;;;;;5002066;28;93043;-62
2023/10/22 00:19:26;;;;;;;2.50;0.80;;;;;;;;;;4998543;28;95938;-63
2023/10/22 00:21:53;;;;;;;4.85;1.02;;;;;;;;;;4995992;28;92427;-62
2023/10/22 00:24:19;;;;;;;3.58;0.85;;;;;;;;;;4995490;27;93100;-62
2023/10/22 00:26:46;;;;;;;4.57;0.95;;;;;;;;;;4994864;28;94382;-62
2023/10/22 00:29:12;;;;;;;6.82;2.28;;;;;;;;;;5001887;28;92424;-62
2023/10/22 00:31:39;;;;;;;3.22;0.70;;;;;;;;;;4999588;28;92846;-62
2023/10/22 00:34:06;;;;;;;4.78;1.00;;;;;;;;;;5000055;28;92570;-62
2023/10/22 00:36:32;;;;;;;4.65;0.90;;;;;;;;;;5002594;28;93244;-62
2023/10/22 00:38:59;;;;;;;2.90;1.00;;;;;;;;;;4995052;28;93417;-62
2023/10/22 00:41:25;;;;;;;7.03;1.30;;;;;;;;;;4995386;28;92510;-62
2023/10/22 00:43:52;;;;;;;3.30;1.15;;;;;;;;;;5005564;28;97960;-62
2023/10/22 00:46:22;;;;;;;4.60;1.13;;;;;;;;;;4997919;28;93421;-62
2023/10/22 00:48:48;;;;;;;2.22;0.93;;;;;;;;;;4995461;28;92542;-62
2023/10/22 00:51:15;;;;;;;2.35;0.90;;;;;;;;;;4998394;28;94227;-62
2023/10/22 00:53:43;;;;;;;4.63;1.10;;;;;;;;;;4994251;28;92414;-62
2023/10/22 00:56:09;;;;;;;4.53;0.90;;;;;;;;;;4994841;28;93293;-62
2023/10/22 00:58:36;;;;;;;3.10;1.17;;;;;;;;;;4994463;28;94126;-62
2023/10/22 01:01:06;;;;;;;2.63;0.95;;;;;;;;;;4995590;28;92245;-62
2023/10/22 01:03:34;;;;;;;4.50;0.90;;;;;;;;;;4999978;28;92535;-63
2023/10/22 01:06:02;;;;;;;3.72;1.15;;;;;;;;;;5001349;28;93062;-63
2023/10/22 01:08:29;;;;;;;4.00;1.00;;;;;;;;;;4995881;28;94843;-62
2023/10/22 01:11:08;;;;;;;5.20;1.00;;;;;;;;;;4998974;28;95587;-62
2023/10/22 01:13:35;;;;;;;3.03;1.00;;;;;;;;;;4998103;28;94500;-63
2023/10/22 01:16:02;;;;;;;2.88;0.93;;;;;;;;;;4994996;28;93933;-62
2023/10/22 01:18:28;;;;;;;4.85;1.10;;;;;;;;;;4998700;28;93443;-62
2023/10/22 01:20:55;;;;;;;4.45;1.17;;;;;;;;;;4995158;28;92422;-62
2023/10/22 01:23:22;;;;;;;8.13;1.02;;;;;;;;;;4994458;28;93130;-62
2023/10/22 01:25:49;;;;;;;2.92;0.90;;;;;;;;;;4995080;28;92655;-62
2023/10/22 01:28:16;;;;;;;5.65;0.85;;;;;;;;;;4993723;28;92449;-62
2023/10/22 01:30:42;;;;;;;7.45;1.25;;;;;;;;;;4994039;28;93118;-62
2023/10/22 01:33:09;;;;;;;2.20;0.73;;;;;;;;;;4996922;28;98122;-62
2023/10/22 01:35:35;;;;;;;5.03;0.95;;;;;;;;;;4997423;28;92532;-62
2023/10/22 01:38:02;;;;;;;4.88;1.02;;;;;;;;;;4993720;28;93563;-62
2023/10/22 01:40:29;;;;;;;5.53;1.50;;;;;;;;;;4998071;28;92604;-62
2023/10/22 01:42:55;;;;;;;2.60;0.90;;;;;;;;;;4994511;28;94168;-62
2023/10/22 01:45:21;;;;;;;2.25;1.17;;;;;;;;;;4994083;28;94510;-62
2023/10/22 01:47:48;;;;;;;9.30;3.63;;;;;;;;;;4997657;28;92386;-62
2023/10/22 01:50:14;;;;;;;1.95;0.82;;;;;;;;;;4994869;28;93120;-62
2023/10/22 01:52:41;;;;;;;4.28;1.17;;;;;;;;;;4993796;28;93326;-62
2023/10/22 01:55:07;;;;;;;3.15;0.90;;;;;;;;;;4993992;28;92655;-62
2023/10/22 01:57:34;;;;;;;5.80;1.00;;;;;;;;;;4999056;28;94935;-62
2023/10/22 02:00:00;;;;;;;6.28;1.17;;;;;;;;;;4994202;28;92402;-63
2023/10/22 02:02:27;;;;;;;1.80;0.82;;;;;;;;;;4994196;28;93154;-62
2023/10/22 02:04:53;;;;;;;5.82;0.75;;;;;;;;;;4997607;27;92454;-63
2023/10/22 02:07:19;;;;;;;4.53;0.85;;;;;;;;;;4998047;28;92396;-62
2023/10/22 02:09:46;;;;;;;2.17;1.10;;;;;;;;;;4993707;28;93099;-63
2023/10/22 02:12:12;;;;;;;4.90;1.13;;;;;;;;;;4993760;28;93404;-62
2023/10/22 02:14:39;;;;;;;1.48;1.00;;;;;;;;;;4993502;28;91930;-63
2023/10/22 02:17:05;;;;;;;2.80;1.05;;;;;;;;;;4995855;28;93415;-62
2023/10/22 02:19:32;;;;;;;1.38;0.90;;;;;;;;;;5004156;28;94568;-62
2023/10/22 02:21:58;;;;;;;2.75;1.00;;;;;;;;;;4996470;28;94808;-64
2023/10/22 02:24:24;;;;;;;0.63;0.63;;;;;;;;;;4992780;28;92455;-64
2023/10/22 02:26:51;;;;;;;1.40;0.90;;;;;;;;;;4993901;28;92626;-65
2023/10/22 02:29:17;;;;;;;1.45;0.68;;;;;;;;;;4997689;28;93111;-65
2023/10/22 02:31:44;;;;;;;0.73;0.73;;;;;;;;;;4993005;28;93893;-64
2023/10/22 02:34:10;;;;;;;2.80;1.30;;;;;;;;;;4993557;28;92553;-64
2023/10/22 02:36:36;;;;;;;3.58;1.10;;;;;;;;;;4993693;28;93098;-64
2023/10/22 02:39:04;;;;;;;2.15;1.10;;;;;;;;;;4993173;28;94360;-64
2023/10/22 02:41:31;;;;;;;1.52;1.30;;;;;;;;;;4999893;28;92423;-65
2023/10/22 02:43:58;;;;;;;3.53;1.20;;;;;;;;;;4992919;28;93415;-64
2023/10/22 02:46:24;;;;;;;1.10;1.00;;;;;;;;;;4992509;28;95007;-65
2023/10/22 02:48:51;;;;;;;1.75;0.75;;;;;;;;;;4992712;28;96570;-65
2023/10/22 02:51:17;;;;;;;1.40;1.10;;;;;;;;;;4993923;28;94386;-64
2023/10/22 02:53:44;;;;;;;2.03;0.80;;;;;;;;;;4997148;28;92445;-64
2023/10/22 02:56:10;;;;;;;1.48;0.90;;;;;;;;;;5002480;28;93201;-64
2023/10/22 02:58:40;;;;;;;1.25;1.02;;;;;;;;;;4995187;28;93442;-64
2023/10/22 03:01:07;;;;;;;0.95;0.82;;;;;;;;;;5008363;28;92435;-64
2023/10/22 03:03:38;;;;;;;2.10;0.65;;;;;;;;;;4998178;28;92576;-64
2023/10/22 03:06:07;;;;;;;0.60;0.60;;;;;;;;;;4997432;28;92375;-64
2023/10/22 03:08:34;;;;;;;3.33;1.20;;;;;;;;;;4993438;28;93222;-64
2023/10/22 03:11:01;;;;;;;0.63;0.47;;;;;;;;;;4999543;28;96828;-64
2023/10/22 03:13:27;;;;;;;0.47;0.47;;;;;;;;;;4992288;28;92551;-64
2023/10/22 03:15:53;;;;;;;0.50;0.50;;;;;;;;;;4992748;28;92994;-64
2023/10/22 03:18:20;;;;;;;1.65;0.50;;;;;;;;;;4995366;28;94450;-64
2023/10/22 03:20:47;;;;;;;0.40;0.40;;;;;;;;;;4992294;28;92634;-64
2023/10/22 03:23:13;;;;;;;51.67;13.30;;;;;;;;;;4995661;28;94608;-64
2023/10/22 03:25:39;;;;;;;0.47;0.45;;;;;;;;;;4996188;28;92541;-64
2023/10/22 03:28:08;;;;;;;1.95;1.25;;;;;;;;;;4992882;28;92125;-64
2023/10/22 03:30:38;;;;;;;0.57;0.57;;;;;;;;;;4992984;28;94555;-62
2023/10/22 03:33:05;;;;;;;2.42;0.98;;;;;;;;;;4996383;28;92376;-62
2023/10/22 03:35:31;;;;;;;2.13;0.80;;;;;;;;;;4991264;28;94852;-62
2023/10/22 03:38:00;;;;;;;2.78;1.25;;;;;;;;;;4992240;28;93067;-61
2023/10/22 03:40:27;;;;;;;2.90;1.25;;;;;;;;;;4992446;28;92553;-61
2023/10/22 03:42:54;;;;;;;3.30;1.38;;;;;;;;;;4996242;28;94547;-61
2023/10/22 03:45:20;;;;;;;1.58;1.23;;;;;;;;;;4995609;28;92872;-61
2023/10/22 03:47:47;;;;;;;2.45;1.48;;;;;;;;;;4993779;28;93067;-61
2023/10/22 03:50:14;;;;;;;2.85;1.35;;;;;;;;;;4992399;28;93657;-61
2023/10/22 03:52:40;;;;;;;3.33;1.35;;;;;;;;;;4996255;28;91809;-61
2023/10/22 03:55:09;;;;;;;1.67;1.42;;;;;;;;;;5003525;28;92717;-61
2023/10/22 03:57:36;;;;;;;5.60;1.80;;;;;;;;;;4995739;28;93468;-62
2023/10/22 04:00:06;;;;;;;6.15;2.10;;;;;;;;;;4994022;28;94811;-61
2023/10/22 04:02:32;;;;;;;6.72;2.33;;;;;;;;;;5000337;28;96620;-61
2023/10/22 04:04:59;;;;;;;7.20;2.22;;;;;;;;;;4995197;28;93475;-61
2023/10/22 04:07:25;;;;;;;8.73;2.70;;;;;;;;;;4999153;28;92514;-61
2023/10/22 04:09:52;;;;;;;12.73;3.72;;;;;;;;;;4999415;28;93534;-62
2023/10/22 04:12:18;;;;;;;8.30;3.47;;;;;;;;;;4995686;28;92417;-62
2023/10/22 04:14:44;;;;;;;6.65;2.97;;;;;;;;;;4994522;28;93134;-61
2023/10/22 04:17:11;;;;;;;9.38;2.85;;;;;;;;;;5001993;28;93702;-62
2023/10/22 04:19:37;;;;;;;8.27;2.85;;;;;;;;;;4997859;28;92795;-62
2023/10/22 04:22:04;;;;;;;16.08;3.40;;;;;;;;;;5003522;28;92755;-62
2023/10/22 04:24:30;;;;;;;7.55;3.45;;;;;;;;;;4995876;28;95800;-61
2023/10/22 04:26:57;;;;;;;9.70;2.55;;;;;;;;;;4995813;28;92665;-62
2023/10/22 04:29:23;;;;;;;7.32;2.75;;;;;;;;;;5002574;28;93096;-62
2023/10/22 04:31:50;;;;;;;4.72;2.05;;;;;;;;;;4998980;28;92429;-62
2023/10/22 04:34:18;;;;;;;7.45;2.53;;;;;;;;;;4994617;28;94745;-62
2023/10/22 04:36:44;;;;;;;4.25;2.30;;;;;;;;;;4995043;28;93776;-62
2023/10/22 04:39:10;;;;;;;13.48;2.45;;;;;;;;;;4995192;28;92458;-62
2023/10/22 04:41:37;;;;;;;9.98;2.25;;;;;;;;;;4995914;28;93587;-64
2023/10/22 04:44:04;;;;;;;2.95;2.40;;;;;;;;;;4994927;28;93203;-65
2023/10/22 04:46:30;;;;;;;8.13;2.45;;;;;;;;;;4996590;28;92585;-64
2023/10/22 04:48:57;;;;;;;5.40;2.60;;;;;;;;;;4992747;28;94995;-65
2023/10/22 04:51:24;;;;;;;12.77;2.97;;;;;;;;;;4998306;28;93420;-65
2023/10/22 04:53:50;;;;;;;13.32;3.72;;;;;;;;;;4994455;28;93130;-64
2023/10/22 04:56:17;;;;;;;11.50;3.72;;;;;;;;;;4999391;28;93374;-65
2023/10/22 04:58:43;;;;;;;11.98;3.42;;;;;;;;;;4997637;28;93435;-65
2023/10/22 05:01:10;;;;;;;7.82;3.65;;;;;;;;;;4995091;28;93148;-64
2023/10/22 05:03:37;;;;;;;8.10;3.38;;;;;;;;;;4993330;28;93339;-65
2023/10/22 05:06:06;;;;;;;6.88;2.78;;;;;;;;;;4995551;28;91842;-64
2023/10/22 05:08:36;;;;;;;11.38;3.35;;;;;;;;;;4995356;28;92987;-64
2023/10/22 05:11:06;;;;;;;12.43;3.50;;;;;;;;;;4997381;28;93249;-65
2023/10/22 05:13:32;;;;;;;15.32;3.42;;;;;;;;;;4992671;28;94764;-65
2023/10/22 05:15:59;;;;;;;7.32;3.13;;;;;;;;;;4994689;28;93412;-64
2023/10/22 05:18:26;;;;;;;5.80;2.75;;;;;;;;;;4998100;28;92486;-65
2023/10/22 05:20:52;;;;;;;15.63;3.47;;;;;;;;;;4994243;28;93193;-64
2023/10/22 05:23:19;;;;;;;10.10;3.35;;;;;;;;;;4999271;28;92620;-65
2023/10/22 05:25:46;;;;;;;7.18;3.00;;;;;;;;;;4994687;28;92635;-64
2023/10/22 05:28:12;;;;;;;10.95;3.20;;;;;;;;;;4994129;28;93130;-65
2023/10/22 05:30:38;;;;;;;9.63;3.53;;;;;;;;;;4994558;28;92561;-65
2023/10/22 05:33:05;;;;;;;4.00;2.53;;;;;;;;;;5001783;28;92492;-64
2023/10/22 05:35:34;;;;;;;12.65;2.83;;;;;;;;;;4994595;28;92418;-64
2023/10/22 05:38:02;;;;;;;5.88;2.95;;;;;;;;;;4996812;28;94922;-64
2023/10/22 05:40:29;;;;;;;7.32;2.60;;;;;;;;;;4993745;28;95524;-64
2023/10/22 05:42:55;;;;;;;4.55;2.28;;;;;;;;;;4994106;28;93469;-64
2023/10/22 05:45:21;;;;;;;8.45;3.05;;;;;;;;;;4994357;28;92417;-64
2023/10/22 05:47:48;;;;;;;6.93;2.92;;;;;;;;;;4995941;28;93205;-64
2023/10/22 05:50:14;;;;;;;7.35;3.15;;;;;;;;;;4993312;28;94410;-65
2023/10/22 05:52:41;;;;;;;10.05;2.75;;;;;;;;;;4998386;28;92510;-63
2023/10/22 05:55:07;;;;;;;10.10;3.25;;;;;;;;;;5001437;28;93170;-63
2023/10/22 05:57:33;;;;;;;4.50;3.20;;;;;;;;;;4993931;27;92527;-62
2023/10/22 06:00:00;;;;;;;6.78;3.15;;;;;;;;;;4993197;28;93112;-62
2023/10/22 06:02:26;;;;;;;9.15;2.85;;;;;;;;;;4992016;28;95873;-62
2023/10/22 06:04:53;;;;;;;5.50;2.88;;;;;;;;;;4994089;28;92576;-62
2023/10/22 06:07:19;;;;;;;6.88;2.90;;;;;;;;;;4993529;28;94178;-62
2023/10/22 06:09:46;;;;;;;5.03;2.30;;;;;;;;;;4994714;28;93368;-62
2023/10/22 06:12:12;;;;;;;6.65;2.63;;;;;;;;;;5001353;28;92372;-62
2023/10/22 06:14:39;;;;;;;5.38;2.35;;;;;;;;;;4997511;28;93141;-62
2023/10/22 06:17:05;;;;;;;10.07;2.33;;;;;;;;;;4998540;28;92586;-62
2023/10/22 06:19:31;;;;;;;8.63;2.28;;;;;;;;;;4997425;28;91811;-62
2023/10/22 06:21:58;;;;;;;6.28;3.58;;;;;;;;;;4993426;28;92630;-61
2023/10/22 06:24:24;;;;;;;7.43;2.30;;;;;;;;;;4993325;28;92886;-62
2023/10/22 06:26:50;;;;;;;4.18;2.70;;;;;;;;;;4991429;28;94736;-62
2023/10/22 06:29:17;;;;;;;7.47;3.63;;;;;;;;;;4998171;28;94433;-62
2023/10/22 06:31:43;;;;;;;7.95;3.67;;;;;;;;;;4998154;28;92537;-62
2023/10/22 06:34:09;;;;;;;5.32;3.50;;;;;;;;;;5001696;28;93095;-62
2023/10/22 06:36:36;;;;;;;8.18;3.80;;;;;;;;;;4996795;28;93825;-62
2023/10/22 06:39:02;;;;;;;9.25;3.92;;;;;;;;;;5000722;28;92565;-62
2023/10/22 06:41:29;;;;;;;7.50;4.10;;;;;;;;;;4993120;28;93465;-62
2023/10/22 06:43:55;;;;;;;6.18;4.05;;;;;;;;;;4992881;28;91776;-63
2023/10/22 06:46:22;;;;;;;7.78;4.20;;;;;;;;;;5000058;28;92550;-63
2023/10/22 06:48:48;;;;;;;7.78;4.30;;;;;;;;;;4996203;28;95026;-62
2023/10/22 06:51:15;;;;;;;9.95;4.82;;;;;;;;;;4991693;28;94957;-62
2023/10/22 06:53:42;;;;;;;10.60;6.03;;;;;;;;;;5000671;28;96607;-62
2023/10/22 06:56:09;;;;;;;12.20;6.30;;;;;;;;;;4997429;28;93401;-62
2023/10/22 06:58:35;;;;;;;13.45;6.38;;;;;;;;;;4992580;28;92950;-62
2023/10/22 07:01:05;;;;;;;12.10;6.53;;;;;;;;;;4999865;28;93135;-63
2023/10/22 07:03:35;;;;;;;10.98;6.10;;;;;;;;;;4992541;28;92725;-64
2023/10/22 07:06:02;;;;;;;13.90;6.18;;;;;;;;;;4992308;28;93493;-64
2023/10/22 07:08:29;;;;;;;13.93;6.32;;;;;;;;;;4993829;28;92756;-64
2023/10/22 07:10:55;;;;;;;12.23;6.45;;;;;;;;;;4996941;28;92461;-64
2023/10/22 07:13:23;;;;;;;13.10;6.40;;;;;;;;;;4992659;28;93203;-64
2023/10/22 07:15:49;;;;;;;11.82;7.22;;;;;;;;;;4991081;28;96104;-64
2023/10/22 07:18:16;;;;;;;10.88;6.30;;;;;;;;;;4997923;28;92650;-64
2023/10/22 07:20:42;;;;;;;13.65;6.43;;;;;;;;;;4995769;28;94923;-65
2023/10/22 07:23:09;;;;;;;10.13;5.88;;;;;;;;;;4992302;28;92574;-64
2023/10/22 07:25:36;;;;;;;11.93;6.13;;;;;;;;;;4992836;28;93194;-64
2023/10/22 07:28:03;;;;;;;11.73;5.82;;;;;;;;;;4995380;28;93714;-64
2023/10/22 07:30:32;;;;;;;7.88;5.32;;;;;;;;;;4996703;28;92444;-64
2023/10/22 07:32:58;;;;;;;16.88;5.20;;;;;;;;;;5000412;28;94137;-65
2023/10/22 07:35:25;;;;;;;13.30;5.53;;;;;;;;;;4996327;28;93931;-64
2023/10/22 07:37:51;;;;;;;13.80;5.85;;;;;;;;;;4996364;28;92956;-64
2023/10/22 07:40:17;;;;;;;9.30;4.95;;;;;;;;;;4994452;28;94952;-64
2023/10/22 07:42:44;;;;;;;11.52;5.47;;;;;;;;;;4998311;28;93425;-64
2023/10/22 07:45:11;;;;;;;19.40;5.93;;;;;;;;;;4996322;28;94698;-64
2023/10/22 07:47:38;;;;;;;8.55;4.97;;;;;;;;;;4998563;28;94840;-64
2023/10/22 07:50:05;;;;;;;20.13;5.70;;;;;;;;;;5003747;28;92436;-64
2023/10/22 07:52:40;;;;;;;9.02;4.18;;;;;;;;;;4995869;28;93222;-64
2023/10/22 07:55:07;;;;;;;13.30;3.97;;;;;;;;;;4996055;28;93391;-64
2023/10/22 07:57:33;;;;;;;8.95;4.45;;;;;;;;;;5000013;28;91709;-64
2023/10/22 08:00:00;;;;;;;9.52;3.78;;;;;;;;;;4995184;28;92466;-64
2023/10/22 08:02:26;;;;;;;10.68;3.40;;;;;;;;;;4995735;28;93516;-65
2023/10/22 08:04:53;;;;;;;8.90;3.92;;;;;;;;;;4997326;28;95087;-64
2023/10/22 08:07:19;;;;;;;6.43;3.17;;;;;;;;;;4995094;28;93382;-64
2023/10/22 08:09:46;;;;;;;9.20;3.47;;;;;;;;;;4995890;28;92509;-64
2023/10/22 08:12:13;;;;;;;14.00;3.53;;;;;;;;;;4995978;28;93284;-65
2023/10/22 08:14:39;;;;;;;7.55;3.22;;;;;;;;;;4995264;28;93344;-62
2023/10/22 08:17:06;;;;;;;10.95;3.80;;;;;;;;;;4996535;28;95107;-62
2023/10/22 08:19:32;;;;;;;9.85;3.53;;;;;;;;;;5003301;28;93162;-62
2023/10/22 08:21:59;;;;;;;7.60;3.28;;;;;;;;;;4994168;28;92738;-62
2023/10/22 08:24:25;;;;;;;11.32;3.55;;;;;;;;;;4994935;28;92580;-62
2023/10/22 08:26:53;;;;;;;7.22;3.40;;;;;;;;;;4998570;28;93241;-62
2023/10/22 08:29:19;;;;;;;7.43;3.50;;;;;;;;;;4991924;28;94839;-62
2023/10/22 08:31:45;;;;;;;11.30;3.03;;;;;;;;;;4995109;28;95620;-62
2023/10/22 08:34:12;;;;;;;8.32;3.65;;;;;;;;;;4995484;28;93516;-62
2023/10/22 08:36:38;;;;;;;11.32;4.25;;;;;;;;;;4995533;28;92826;-62
2023/10/22 08:39:09;;;;;;;8.33;3.70;;;;;;;;;;4994272;28;92905;-62
2023/10/22 08:41:44;;;;;;;12.07;3.25;;;;;;;;;;4994687;28;93862;-62
2023/10/22 08:44:12;;;;;;;5.85;2.67;;;;;;;;;;4994334;28;92591;-62
2023/10/22 08:46:39;;;;;;;5.95;2.50;;;;;;;;;;4998343;28;93090;-62
2023/10/22 08:49:05;;;;;;;11.35;4.03;;;;;;;;;;5002219;28;94500;-62
2023/10/22 08:51:32;;;;;;;5.97;2.55;;;;;;;;;;4998471;28;93138;-62
2023/10/22 08:54:00;;;;;;;6.60;2.97;;;;;;;;;;4992744;28;95795;-62
2023/10/22 08:56:27;;;;;;;8.18;2.40;;;;;;;;;;4994347;28;92610;-62
2023/10/22 08:58:56;;;;;;;7.55;2.92;;;;;;;;;;4995095;28;93836;-62
2023/10/22 09:01:25;;;;;;;14.20;3.03;;;;;;;;;;4999567;28;94936;-62
2023/10/22 09:03:51;;;;;;;6.63;2.83;;;;;;;;;;4997618;28;92390;-63
2023/10/22 09:06:19;;;;;;;8.20;3.72;;;;;;;;;;5004072;28;96249;-64
2023/10/22 09:08:46;;;;;;;12.02;2.17;;;;;;;;;;4998411;28;93616;-62
2023/10/22 09:11:14;;;;;;;12.75;3.08;;;;;;;;;;4997612;28;92027;-63
2023/10/22 09:13:40;;;;;;;8.77;3.67;;;;;;;;;;4994707;28;93450;-62
2023/10/22 09:16:08;;;;;;;11.15;4.25;;;;;;;;;;5003980;28;92483;-62
2023/10/22 09:18:44;;;;;;;7.70;2.88;;;;;;;;;;4998195;28;94915;-62
2023/10/22 09:21:11;;;;;;;5.75;2.88;;;;;;;;;;4994390;28;93389;-62
2023/10/22 09:23:37;;;;;;;9.57;2.67;;;;;;;;;;4998531;28;92447;-65
2023/10/22 09:26:08;;;;;;;8.80;2.10;;;;;;;;;;4994451;28;93234;-65
2023/10/22 09:28:34;;;;;;;11.10;2.38;;;;;;;;;;5001632;28;93380;-65
2023/10/22 09:31:01;;;;;;;12.63;2.85;;;;;;;;;;4997723;28;92430;-64
2023/10/22 09:33:32;;;;;;;7.93;2.22;;;;;;;;;;4993815;28;93577;-64
2023/10/22 09:36:05;;;;;;;6.32;2.17;;;;;;;;;;4998318;28;91795;-64
2023/10/22 09:38:45;;;;;;;9.63;2.35;;;;;;;;;;4994588;28;92550;-64
2023/10/22 09:41:13;;;;;;;9.05;1.95;;;;;;;;;;4994632;28;93396;-65
2023/10/22 09:43:41;;;;;;;6.53;2.05;;;;;;;;;;5005132;28;95084;-64
2023/10/22 09:46:08;;;;;;;5.60;1.80;;;;;;;;;;4995381;28;95666;-65
2023/10/22 09:48:35;;;;;;;6.47;2.40;;;;;;;;;;4994430;28;93410;-65
2023/10/22 09:51:05;;;;;;;6.47;1.67;;;;;;;;;;4994281;28;92452;-65
2023/10/22 09:53:37;;;;;;;6.07;2.50;;;;;;;;;;4998619;28;93261;-65
2023/10/22 09:56:06;;;;;;;5.63;1.95;;;;;;;;;;4995264;28;92430;-64
2023/10/22 09:58:39;;;;;;;6.65;2.08;;;;;;;;;;4993468;28;93231;-65
2023/10/22 10:01:13;;;;;;;7.70;1.92;;;;;;;;;;4996727;28;92687;-65
2023/10/22 10:03:42;;;;;;;5.97;2.08;;;;;;;;;;4993523;28;92636;-65
2023/10/22 10:06:09;;;;;;;8.38;2.15;;;;;;;;;;4997827;28;94156;-65
2023/10/22 10:08:37;;;;;;;4.88;1.98;;;;;;;;;;4992274;28;95900;-65
2023/10/22 10:11:08;;;;;;;6.10;2.10;;;;;;;;;;4993817;28;92663;-65
2023/10/22 10:13:37;;;;;;;9.07;2.33;;;;;;;;;;4993184;28;93397;-64
2023/10/22 10:16:04;;;;;;;3.95;1.90;;;;;;;;;;4997434;28;92530;-64
2023/10/22 10:18:49;;;;;;;5.00;2.20;;;;;;;;;;4999542;28;94097;-65
2023/10/22 10:21:34;;;;;;;6.90;2.40;;;;;;;;;;4993191;28;93442;-64
2023/10/22 10:24:19;;;;;;;6.22;1.95;;;;;;;;;;4993771;28;92532;-65
2023/10/22 10:26:47;;;;;;;16.25;1.95;;;;;;;;;;4993616;28;96699;-65
2023/10/22 10:29:15;;;;;;;4.32;1.50;;;;;;;;;;4993472;28;93462;-65
2023/10/22 10:31:45;;;;;;;4.10;1.48;;;;;;;;;;4997042;28;92569;-65
2023/10/22 10:34:21;;;;;;;5.40;1.55;;;;;;;;;;4999846;28;94971;-65
2023/10/22 10:36:49;;;;;;;6.32;1.67;;;;;;;;;;5001648;28;93364;-65
2023/10/22 10:39:35;;;;;;;5.78;2.00;;;;;;;;;;5000725;28;92441;-65
2023/10/22 10:42:01;;;;;;;6.70;1.52;;;;;;;;;;4992452;28;93452;-65
2023/10/22 10:44:28;;;;;;;4.78;1.40;;;;;;;;;;4997321;28;92692;-65
2023/10/22 10:47:14;;;;;;;3.70;1.77;;;;;;;;;;4997509;28;94254;-65
2023/10/22 10:50:02;;;;;;;4.97;1.63;;;;;;;;;;4993736;28;95872;-65
2023/10/22 10:52:30;;;;;;;10.43;1.65;;;;;;;;;;4994162;28;91804;-65
2023/10/22 10:54:57;;;;;;;3.80;1.67;;;;;;;;;;4992371;28;92548;-65
2023/10/22 10:57:36;;;;;;;4.78;1.67;;;;;;;;;;4993171;28;92414;-65
2023/10/22 11:00:04;;;;;;;9.20;1.45;;;;;;;;;;4990579;28;94954;-65
2023/10/22 11:02:39;;;;;;;7.07;1.42;;;;;;;;;;4995567;28;95512;-64
2023/10/22 11:05:06;;;;;;;9.15;2.35;;;;;;;;;;4996871;28;92527;-66
2023/10/22 11:07:32;;;;;;;4.90;1.55;;;;;;;;;;4996835;28;92996;-65
2023/10/22 11:09:59;;;;;;;4.47;1.50;;;;;;;;;;4997631;28;93815;-65
2023/10/22 11:12:25;;;;;;;2.85;1.30;;;;;;;;;;4993599;28;92782;-65
2023/10/22 11:14:54;;;;;;;7.72;1.98;;;;;;;;;;4992646;28;93109;-64
2023/10/22 11:17:20;;;;;;;5.45;1.83;;;;;;;;;;5000968;28;92617;-65
2023/10/22 11:19:49;;;;;;;5.03;1.70;;;;;;;;;;4992489;28;92574;-65
2023/10/22 11:22:15;;;;;;;6.00;1.35;;;;;;;;;;5003355;28;94213;-64
2023/10/22 11:24:42;;;;;;;6.50;1.52;;;;;;;;;;4996510;28;94837;-65
2023/10/22 11:27:08;;;;;;;7.30;1.20;;;;;;;;;;4992430;28;95539;-65
2023/10/22 11:29:38;;;;;;;5.90;1.30;;;;;;;;;;4996978;28;92569;-65
2023/10/22 11:32:09;;;;;;;3.03;1.40;;;;;;;;;;4993242;28;92661;-65
2023/10/22 11:34:36;;;;;;;2.97;1.58;;;;;;;;;;4992946;28;92961;-65
2023/10/22 11:37:06;;;;;;;1.85;1.23;;;;;;;;;;4992402;28;93532;-64
2023/10/22 11:39:34;;;;;;;2.00;1.00;;;;;;;;;;4992210;28;92666;-65
2023/10/22 11:42:10;;;;;;;4.13;1.15;;;;;;;;;;4992817;28;93125;-65
2023/10/22 11:44:42;;;;;;;5.80;1.55;;;;;;;;;;4994537;28;93650;-62
2023/10/22 11:47:25;;;;;;;3.25;1.08;;;;;;;;;;5000192;28;92403;-62
2023/10/22 11:49:54;;;;;;;3.72;1.00;;;;;;;;;;4991210;28;96381;-62
2023/10/22 11:52:39;;;;;;;5.93;1.50;;;;;;;;;;4993502;28;92608;-62
2023/10/22 11:55:06;;;;;;;5.15;1.08;;;;;;;;;;4991827;28;93010;-62
2023/10/22 11:57:43;;;;;;;3.28;1.48;;;;;;;;;;4990908;28;93264;-62
2023/10/22 12:00:09;;;;;;;4.93;1.50;;;;;;;;;;4992018;28;92432;-62
2023/10/22 12:02:36;;;;;;;2.97;1.10;;;;;;;;;;5001259;28;94277;-61
2023/10/22 12:05:03;;;;;;;1.58;0.88;;;;;;;;;;4992178;28;92457;-62
2023/10/22 12:07:29;;;;;;;2.95;1.13;;;;;;;;;;4999716;28;91751;-61
2023/10/22 12:09:56;;;;;;;1.60;0.98;;;;;;;;;;4992353;28;93525;-61
2023/10/22 12:12:23;;;;;;;4.18;1.20;;;;;;;;;;5001598;28;92441;-61
2023/10/22 12:14:49;;;;;;;3.65;1.90;;;;;;;;;;4994343;28;94839;-62
2023/10/22 12:17:17;;;;;;;1.60;0.80;;;;;;;;;;4998854;28;93597;-62
2023/10/22 12:19:47;;;;;;;1.40;0.60;;;;;;;;;;4995877;28;92841;-62
2023/10/22 12:22:14;;;;;;;4.90;0.98;;;;;;;;;;4995537;28;92975;-62
2023/10/22 12:24:40;;;;;;;3.00;0.73;;;;;;;;;;4996783;28;94316;-62
2023/10/22 12:27:07;;;;;;;4.90;0.85;;;;;;;;;;4999464;28;92542;-62
2023/10/22 12:29:33;;;;;;;1.73;0.70;;;;;;;;;;5001411;28;94186;-62
2023/10/22 12:32:00;;;;;;;1.90;0.80;;;;;;;;;;4995828;28;91695;-62
2023/10/22 12:34:27;;;;;;;4.07;1.77;;;;;;;;;;4993963;28;92755;-62
2023/10/22 12:36:53;;;;;;;2.95;1.45;;;;;;;;;;4999340;28;93446;-62
2023/10/22 12:39:21;;;;;;;12.23;9.93;;;;;;;;;;4993679;28;94987;-62
2023/10/22 12:41:47;;;;;;;15.20;13.65;;;;;;;;;;4994305;28;95590;-62
2023/10/22 12:44:13;;;;;;;7.32;6.28;;;;;;;;;;4998182;28;92334;-62
2023/10/22 12:46:40;;;;;;;24.27;22.02;;;;;;;;;;4999222;28;92444;-63
2023/10/22 12:49:06;;;;;;;33.33;30.05;;;;;;;;;;5002457;28;93555;-60
2023/10/22 12:51:33;;;;;;;51.30;45.97;;;;;;;;;;5004617;28;95327;-61
2023/10/22 12:53:59;;;;;;;63.88;57.13;;;;;;;;;;4998721;28;92892;-60
2023/10/22 12:56:28;;;;;;;57.05;50.80;;;;;;;;;;4994371;28;91850;-63
2023/10/22 12:58:55;;;;;;;58.13;52.03;;;;;;;;;;4998632;28;92819;-63
2023/10/22 13:01:22;;;;;;;61.13;54.90;;;;;;;;;;4993924;28;93456;-63
2023/10/22 13:03:49;;;;;;;67.68;60.50;;;;;;;;;;4992702;28;95516;-63
2023/10/22 13:06:15;;;;;;;75.10;66.70;;;;;;;;;;4994155;28;92476;-63
2023/10/22 13:08:42;;;;;;;62.10;55.22;;;;;;;;;;4994215;28;94383;-63
2023/10/22 13:11:09;;;;;;;88.97;79.68;;;;;;;;;;4998757;28;94020;-63
2023/10/22 13:13:35;;;;;;;85.22;76.55;;;;;;;;;;4997085;28;92482;-63
2023/10/22 13:16:01;;;;;;;76.13;68.85;;;;;;;;;;4993680;28;93225;-63
2023/10/22 13:18:28;;;;;;;75.40;68.63;;;;;;;;;;4998355;28;92517;-64
2023/10/22 13:20:54;;;;;;;99.15;89.43;;;;;;;;;;4995403;28;93626;-63
2023/10/22 13:23:21;;;;;;;152.35;137.48;;;;;;;;;;4992868;28;93517;-64
2023/10/22 13:25:47;;;;;;;125.07;112.50;;;;;;;;;;4992669;28;92825;-64
2023/10/22 13:28:14;;;;;;;155.65;139.07;;;;;;;;;;4991300;28;94904;-63
2023/10/22 13:30:40;;;;;;;100.70;91.13;;;;;;;;;;4993423;28;92573;-63
2023/10/22 13:33:07;;;;;;;90.25;80.95;;;;;;;;;;4996543;28;92881;-64
2023/10/22 13:35:34;;;;;;;109.28;98.43;;;;;;;;;;4994008;28;93781;-64
2023/10/22 13:38:01;;;;;;;240.60;217.55;;;;;;;;;;4997430;28;92511;-64
2023/10/22 13:40:27;;;;;;;195.98;175.98;;;;;;;;;;4992823;28;93245;-64
2023/10/22 13:42:53;;;;;;;173.85;157.35;;;;;;;;;;4992636;27;94069;-64
2023/10/22 13:45:20;;;;;;;306.58;276.75;;;;;;;;;;4992143;28;92755;-64
2023/10/22 13:47:46;;;;;;;500.73;454.85;;;;;;;;;;4993462;28;92737;-63
2023/10/22 13:50:14;;;;;;;453.30;411.55;;;;;;;;;;5001180;28;94223;-63
2023/10/22 13:52:41;;;;;;;571.35;515.38;;;;;;;;;;4991394;28;94817;-65
2023/10/22 13:55:07;;;;;;;604.83;547.78;;;;;;;;;;4995506;28;94934;-65
2023/10/22 13:57:35;;;;;;;568.70;507.90;;;;;;;;;;4996739;28;92526;-65
2023/10/22 14:00:02;;;;;;;439.02;384.08;;;;;;;;;;4992979;28;94428;-65
2023/10/22 14:02:31;;;;;;;359.30;320.45;;;;;;;;;;4992359;28;93202;-65
2023/10/22 14:04:58;;;;;;;212.77;155.43;;;;;;;;;;4992775;28;92472;-65
2023/10/22 14:07:24;;;;;;;122.68;96.50;;;;;;;;;;4992289;28;93246;-62
2023/10/22 14:09:50;;;;;;;5.47;1.65;;;;;;;;;;4993361;28;91874;-62
2023/10/22 14:12:17;;;;;;;4.03;1.40;;;;;;;;;;4995920;28;92604;-63
2023/10/22 14:14:44;;;;;;;3.33;1.23;;;;;;;;;;4999478;28;92655;-63
2023/10/22 14:17:10;;;;;;;3.20;1.10;;;;;;;;;;4993774;28;95861;-63
2023/10/22 14:19:36;;;;;;;2.92;0.90;;;;;;;;;;4995646;28;95502;-63
2023/10/22 14:22:03;;;;;;;10.13;7.20;;;;;;;;;;5000552;28;93420;-63
2023/10/22 14:24:33;;;;;;;20.58;12.05;;;;;;;;;;4993903;28;92491;-63
2023/10/22 14:27:00;;;;;;;5.93;1.00;;;;;;;;;;4992930;28;93250;-63
2023/10/22 14:29:39;;;;;;;5.00;0.95;;;;;;;;;;4993560;28;92432;-62
2023/10/22 14:32:05;;;;;;;3.72;0.77;;;;;;;;;;4993045;28;93027;-63
2023/10/22 14:34:32;;;;;;;3.55;1.20;;;;;;;;;;4997941;28;95455;-62
2023/10/22 14:36:58;;;;;;;1.50;0.90;;;;;;;;;;4994042;28;94975;-63
2023/10/22 14:39:25;;;;;;;3.45;0.98;;;;;;;;;;4996823;28;92672;-62